9R7 weather

Public forecast

Using degrees Fahrenheit for public forecast. Weather courtesy of forecast.io.

Closest aviation weather report (METAR) to Camp Bullis Heliport

Closest report is Boerne Stage Field, 7.8 nm (14.5 km) NW. Retrieved 2020/08/14 02:15 UTC (0 seconds ago):

K5C1 140215Z AUTO 18003KT 10SM CLR 30/15 A2996 RMK AO1

Closest aviation forecast (TAF) to Camp Bullis Heliport

Closest forecast is San Antonio International Airport, 8.6 nm (16.0 km) SE. Retrieved 2020-08-14 00:22 UTC (2 hours ago):

TAF KSAT 132320Z 1400/1506 16010KT P6SM SKC FM140800 18007KT P6SM FEW012 FM141500 20009KT P6SM SKC